createdAt,value
2019-05-03T00:02:28.016Z,100250.94
2019-05-03T00:05:27.156Z,100241.32
2019-05-03T00:08:17.280Z,100249.03
2019-05-03T00:11:07.794Z,100254.65
2019-05-03T00:13:58.263Z,100257.51
2019-05-03T00:16:52.105Z,100254.11
2019-05-03T00:19:42.314Z,100256.69
2019-05-03T00:22:33.756Z,100252.72
2019-05-03T00:25:24.133Z,100252.24
2019-05-03T00:28:14.788Z,100250.53
2019-05-03T00:31:05.465Z,100251.68
2019-05-03T00:34:02.269Z,100250.34
2019-05-03T00:36:55.808Z,100253.37
2019-05-03T00:40:06.412Z,100252.47
2019-05-03T00:42:56.787Z,100252.03
2019-05-03T00:45:46.973Z,100263.36
2019-05-03T00:48:37.195Z,100261.37
2019-05-03T00:51:27.405Z,100263.70
2019-05-03T00:54:17.858Z,100266.30
2019-05-03T00:57:08.523Z,100270.40
2019-05-03T00:59:59.030Z,100266.39
2019-05-03T01:02:49.392Z,100253.93
2019-05-03T01:05:39.756Z,100258.52
2019-05-03T01:08:30.037Z,100262.56
2019-05-03T01:11:22.266Z,100270.09
2019-05-03T01:14:13.258Z,100272.73
2019-05-03T01:17:03.680Z,100272.70
2019-05-03T01:19:54.238Z,100280.16
2019-05-03T01:22:44.685Z,100271.13
2019-05-03T01:25:35.598Z,100276.88
2019-05-03T01:28:26.015Z,100278.50
2019-05-03T01:31:18.972Z,100280.19
2019-05-03T01:34:09.208Z,100278.39
2019-05-03T01:36:59.937Z,100288.27
2019-05-03T01:39:52.438Z,100289.59
2019-05-03T01:42:43.029Z,100294.70
2019-05-03T01:45:33.673Z,100292.72
2019-05-03T01:48:41.651Z,100270.63
2019-05-03T01:51:52.606Z,100294.81
2019-05-03T01:54:43.239Z,100296.54
2019-05-03T01:57:33.509Z,100292.09
2019-05-03T02:00:27.204Z,100293.03
2019-05-03T02:03:24.695Z,100294.45
2019-05-03T02:06:15.286Z,100290.38
2019-05-03T02:09:08.511Z,100296.28
2019-05-03T02:11:58.738Z,100295.02
2019-05-03T02:14:49.176Z,100295.66
2019-05-03T02:17:39.756Z,100292.62
2019-05-03T02:20:32.381Z,100296.31
2019-05-03T02:23:23.455Z,100294.19
2019-05-03T02:26:13.932Z,100299.30
2019-05-03T02:29:07.165Z,100295.63
2019-05-03T02:31:57.666Z,100297.45
2019-05-03T02:34:48.335Z,100299.66
2019-05-03T02:37:43.721Z,100300.73
2019-05-03T02:40:33.916Z,100292.80
2019-05-03T02:43:28.568Z,100303.71
2019-05-03T02:46:36.627Z,100293.86
2019-05-03T02:49:37.576Z,100296.56
2019-05-03T02:52:37.902Z,100301.48
2019-05-03T02:55:28.317Z,100306.95
2019-05-03T02:58:18.757Z,100308.27
2019-05-03T03:01:09.282Z,100311.61
2019-05-03T03:04:00.600Z,100314.94
2019-05-03T03:06:50.857Z,100311.91
2019-05-03T03:09:41.139Z,100311.06
2019-05-03T03:12:31.708Z,100311.55
2019-05-03T03:15:22.066Z,100312.75
2019-05-03T03:18:12.517Z,100311.13
2019-05-03T03:21:02.691Z,100317.59
2019-05-03T03:24:06.424Z,100320.34
2019-05-03T03:26:57.404Z,100316.03
2019-05-03T03:29:48.976Z,100329.74
2019-05-03T03:32:39.922Z,100326.44
2019-05-03T03:35:32.198Z,100326.65
2019-05-03T03:38:25.897Z,100334.28
2019-05-03T03:41:16.293Z,100332.43
2019-05-03T03:44:06.751Z,100339.17
2019-05-03T03:46:57.310Z,100353.28
2019-05-03T03:49:47.778Z,100351.19
2019-05-03T03:52:38.483Z,100353.81
2019-05-03T03:55:29.440Z,100350.41
2019-05-03T03:58:22.831Z,100358.92
2019-05-03T04:01:15.520Z,100359.83
2019-05-03T04:04:05.586Z,100355.55
2019-05-03T04:07:01.016Z,100351.44
2019-05-03T04:09:48.422Z,100361.41
2019-05-03T04:12:39.355Z,100362.44
2019-05-03T04:15:40.334Z,100361.38
2019-05-03T04:18:49.967Z,100363.10
2019-05-03T04:21:40.501Z,100365.97
2019-05-03T04:24:31.441Z,100357.35
2019-05-03T04:27:24.390Z,100363.08
2019-05-03T04:30:16.437Z,100362.19
2019-05-03T04:33:06.920Z,100365.06
2019-05-03T04:35:57.895Z,100370.78
2019-05-03T04:38:48.916Z,100375.00
2019-05-03T04:41:39.677Z,100379.45
2019-05-03T04:44:30.564Z,100374.53
2019-05-03T04:47:21.434Z,100378.72
2019-05-03T04:50:12.582Z,100377.16
2019-05-03T04:53:05.654Z,100387.45
2019-05-03T04:55:56.528Z,100393.28
2019-05-03T04:58:47.790Z,100396.14
2019-05-03T05:01:38.951Z,100398.97
2019-05-03T05:04:31.372Z,100404.78
2019-05-03T05:07:22.379Z,100405.78
2019-05-03T05:10:15.306Z,100410.50
2019-05-03T05:13:06.813Z,100422.67
2019-05-03T05:15:57.946Z,100422.67
2019-05-03T05:18:55.999Z,100404.68
2019-05-03T05:21:50.430Z,100404.68
2019-05-03T05:24:41.122Z,100423.12
2019-05-03T05:27:54.647Z,100422.57
2019-05-03T05:30:44.457Z,100428.51
2019-05-03T05:33:35.495Z,100429.70
2019-05-03T05:36:27.206Z,100432.80
2019-05-03T05:39:18.874Z,100425.00
2019-05-03T05:42:09.720Z,100426.13
2019-05-03T05:45:00.438Z,100426.64
2019-05-03T05:48:05.469Z,100423.70
2019-05-03T05:50:56.268Z,100429.50
2019-05-03T05:53:47.037Z,100427.20
2019-05-03T05:56:49.398Z,100439.23
2019-05-03T05:59:49.010Z,100431.15
2019-05-03T06:02:39.824Z,100435.41
2019-05-03T06:05:30.705Z,100441.66
2019-05-03T06:08:46.691Z,100437.53
2019-05-03T06:11:51.211Z,100443.64
2019-05-03T06:14:55.183Z,100443.89
2019-05-03T06:17:57.073Z,100440.80
2019-05-03T06:21:04.622Z,100441.48
2019-05-03T06:24:00.036Z,100442.56
2019-05-03T06:26:58.065Z,100444.31
2019-05-03T06:29:50.144Z,100450.37
2019-05-03T06:32:41.908Z,100447.81
2019-05-03T06:35:34.476Z,100455.41
2019-05-03T06:38:25.219Z,100453.64
2019-05-03T06:41:16.312Z,100450.62
2019-05-03T06:44:06.860Z,100453.70
2019-05-03T06:47:01.103Z,100465.78
2019-05-03T06:49:49.612Z,100463.23
2019-05-03T06:52:40.301Z,100471.46
2019-05-03T06:55:31.128Z,100463.25
2019-05-03T06:58:31.251Z,100464.80
2019-05-03T07:01:25.743Z,100462.09
2019-05-03T07:04:24.574Z,100463.86
2019-05-03T07:07:54.714Z,100461.91
2019-05-03T07:10:49.300Z,100463.77
2019-05-03T07:13:40.181Z,100479.20
2019-05-03T07:16:30.984Z,100476.55
2019-05-03T07:19:21.476Z,100485.80
2019-05-03T07:22:12.047Z,100479.66
2019-05-03T07:25:04.623Z,100473.72
2019-05-03T07:27:55.729Z,100471.94
2019-05-03T07:30:46.738Z,100464.58
2019-05-03T07:33:37.669Z,100465.75
2019-05-03T07:36:28.834Z,100450.43
2019-05-03T07:39:19.641Z,100450.56
2019-05-03T07:42:10.789Z,100439.77
2019-05-03T07:45:01.745Z,100439.77
2019-05-03T07:47:52.869Z,100448.38
2019-05-03T07:50:44.718Z,100445.46
2019-05-03T07:53:35.633Z,100444.47
2019-05-03T07:56:31.427Z,100436.39
2019-05-03T07:59:22.260Z,100448.38
2019-05-03T08:02:14.485Z,100446.19
2019-05-03T08:05:05.580Z,100451.34
2019-05-03T08:07:57.321Z,100456.24
2019-05-03T08:10:48.129Z,100451.64
2019-05-03T08:13:38.899Z,100454.64
2019-05-03T08:16:30.229Z,100453.98
2019-05-03T08:19:23.588Z,100445.52
2019-05-03T08:22:17.253Z,100445.59
2019-05-03T08:25:08.109Z,100447.84
2019-05-03T08:27:59.133Z,100444.46
2019-05-03T08:31:15.261Z,100448.02
2019-05-03T08:34:27.881Z,100450.70
2019-05-03T08:37:24.494Z,100457.00
2019-05-03T08:40:15.804Z,100461.75
2019-05-03T08:43:07.872Z,100459.62
2019-05-03T08:45:58.715Z,100460.34
2019-05-03T08:48:49.734Z,100459.20
2019-05-03T08:51:40.858Z,100464.47
2019-05-03T08:54:31.617Z,100458.39
2019-05-03T08:57:22.678Z,100460.13
2019-05-03T09:00:17.729Z,100452.19
2019-05-03T09:03:08.820Z,100448.74
2019-05-03T09:05:59.997Z,100447.46
2019-05-03T09:08:54.360Z,100447.46
2019-05-03T09:11:45.354Z,100451.47
2019-05-03T09:14:42.645Z,100454.89
2019-05-03T09:17:28.899Z,100450.59
2019-05-03T09:20:19.782Z,100452.72
2019-05-03T09:23:11.681Z,100452.70
2019-05-03T09:26:04.556Z,100455.28
2019-05-03T09:28:55.731Z,100453.94
2019-05-03T09:31:46.999Z,100456.37
2019-05-03T09:34:38.106Z,100447.23
2019-05-03T09:37:29.319Z,100446.72
2019-05-03T09:40:20.336Z,100452.95
2019-05-03T09:43:11.372Z,100458.90
2019-05-03T09:46:02.265Z,100455.08
2019-05-03T09:48:59.830Z,100452.39
2019-05-03T09:51:47.584Z,100445.97
2019-05-03T09:54:45.336Z,100447.70
2019-05-03T09:57:36.859Z,100444.22
2019-05-03T10:00:28.044Z,100436.67
2019-05-03T10:03:18.506Z,100438.45
2019-05-03T10:06:08.905Z,100423.25
2019-05-03T10:08:59.141Z,100430.00
2019-05-03T10:11:49.537Z,100419.63
2019-05-03T10:14:40.017Z,100419.45
2019-05-03T10:17:47.422Z,100415.12
2019-05-03T10:20:38.051Z,100407.91
2019-05-03T10:23:46.720Z,100403.31
2019-05-03T10:26:37.061Z,100403.39
2019-05-03T10:29:27.584Z,100399.33
2019-05-03T10:32:41.129Z,100390.55
2019-05-03T10:35:31.646Z,100393.40
2019-05-03T10:38:24.962Z,100386.77
2019-05-03T10:41:15.305Z,100384.15
2019-05-03T10:44:06.158Z,100373.23
2019-05-03T10:46:56.924Z,100373.40
2019-05-03T10:49:48.368Z,100375.30
2019-05-03T10:52:44.681Z,100372.13
2019-05-03T10:55:35.765Z,100362.67
2019-05-03T10:58:27.402Z,100363.50
2019-05-03T11:01:19.802Z,100366.94
2019-05-03T11:04:10.496Z,100358.16
2019-05-03T11:07:00.911Z,100361.52
2019-05-03T11:09:54.960Z,100355.32
2019-05-03T11:12:44.607Z,100370.22
2019-05-03T11:15:35.713Z,100360.98
2019-05-03T11:18:26.896Z,100353.06
2019-05-03T11:21:27.965Z,100358.81
2019-05-03T11:24:10.614Z,100363.48
2019-05-03T11:27:04.472Z,100354.94
2019-05-03T11:29:55.747Z,100351.80
2019-05-03T11:33:12.019Z,100353.75
2019-05-03T11:36:16.312Z,100345.72
2019-05-03T11:39:07.991Z,100361.23
2019-05-03T11:42:00.178Z,100345.99
2019-05-03T11:44:51.027Z,100341.09
2019-05-03T11:47:41.992Z,100340.66
2019-05-03T11:50:34.737Z,100336.39
2019-05-03T11:53:25.996Z,100329.63
2019-05-03T11:56:17.023Z,100317.80
2019-05-03T11:59:07.688Z,100318.41
2019-05-03T12:02:10.907Z,100309.16
2019-05-03T12:05:04.876Z,100307.77
2019-05-03T12:07:55.825Z,100301.14
2019-05-03T12:10:56.286Z,100298.75
2019-05-03T12:13:39.912Z,100287.33
2019-05-03T12:17:07.699Z,100284.69
2019-05-03T12:19:30.177Z,100277.69
2019-05-03T12:22:17.781Z,100277.92
2019-05-03T12:25:10.471Z,100280.14
2019-05-03T12:28:01.571Z,100281.50
2019-05-03T12:30:52.620Z,100270.14
2019-05-03T12:33:45.978Z,100270.09
2019-05-03T12:36:39.154Z,100255.88
2019-05-03T12:39:30.838Z,100252.20
2019-05-03T12:42:22.202Z,100244.86
2019-05-03T12:45:15.176Z,100239.92
2019-05-03T12:48:06.003Z,100244.67
2019-05-03T12:50:57.220Z,100247.02
2019-05-03T12:53:48.605Z,100247.91
2019-05-03T12:56:40.468Z,100250.21
2019-05-03T12:59:46.507Z,100235.84
2019-05-03T13:02:41.467Z,100235.10
2019-05-03T13:05:32.395Z,100223.00
2019-05-03T13:08:54.876Z,100220.45
2019-05-03T13:11:55.347Z,100226.69
2019-05-03T13:14:39.656Z,100225.15
2019-05-03T13:17:37.057Z,100220.88
2019-05-03T13:20:27.876Z,100217.84
2019-05-03T13:23:18.892Z,100210.30
2019-05-03T13:26:09.844Z,100208.36
2019-05-03T13:29:00.994Z,100204.50
2019-05-03T13:32:00.039Z,100205.68
2019-05-03T13:34:45.091Z,100205.68
2019-05-03T13:37:36.091Z,100202.41
2019-05-03T13:40:27.212Z,100208.70
2019-05-03T13:43:17.551Z,100202.98
2019-05-03T13:46:08.032Z,100201.42
2019-05-03T13:49:00.090Z,100200.31
2019-05-03T13:51:50.605Z,100201.95
2019-05-03T13:54:41.273Z,100198.80
2019-05-03T13:57:31.806Z,100202.82
2019-05-03T14:03:11.169Z,100201.59
2019-05-03T14:06:01.593Z,100197.77
2019-05-03T14:08:51.986Z,100204.61
2019-05-03T14:11:44.659Z,100199.25
2019-05-03T14:14:55.831Z,100192.50
2019-05-03T14:17:45.301Z,100203.00
2019-05-03T14:21:06.841Z,100206.06
2019-05-03T14:24:15.606Z,100194.06
2019-05-03T14:27:05.648Z,100200.02
2019-05-03T14:29:56.100Z,100191.28
2019-05-03T14:32:46.762Z,100191.61
2019-05-03T14:35:37.151Z,100194.17
2019-05-03T14:38:27.483Z,100195.78
2019-05-03T14:41:18.141Z,100188.43
2019-05-03T14:44:08.984Z,100186.47
2019-05-03T14:46:59.384Z,100182.43
2019-05-03T14:49:49.732Z,100197.88
2019-05-03T14:52:40.179Z,100185.94
2019-05-03T14:55:51.168Z,100197.09
2019-05-03T14:59:09.411Z,100193.25
2019-05-03T15:02:08.893Z,100196.52
2019-05-03T15:04:59.215Z,100194.02
2019-05-03T15:07:49.444Z,100202.64
2019-05-03T15:10:39.753Z,100190.02
2019-05-03T15:13:30.141Z,100194.76
2019-05-03T15:16:20.340Z,100198.34
2019-05-03T15:19:10.677Z,100200.71
2019-05-03T15:22:00.810Z,100213.77
2019-05-03T15:24:51.205Z,100208.33
2019-05-03T15:27:41.767Z,100189.16
2019-05-03T15:30:32.362Z,100211.39
2019-05-03T15:33:22.915Z,100213.49
2019-05-03T15:36:15.356Z,100205.95
2019-05-03T15:39:06.397Z,100212.68
2019-05-03T15:41:58.799Z,100208.66
2019-05-03T15:45:14.612Z,100215.41
2019-05-03T15:48:15.185Z,100206.91
2019-05-03T15:51:05.616Z,100215.19
2019-05-03T15:53:56.322Z,100200.91
2019-05-03T15:56:46.884Z,100205.36
2019-05-03T15:59:37.427Z,100204.35
2019-05-03T16:02:27.861Z,100200.58
2019-05-03T16:05:18.402Z,100195.39
2019-05-03T16:08:08.841Z,100181.06
2019-05-03T16:10:59.052Z,100176.79
2019-05-03T16:13:50.260Z,100172.87
2019-05-03T16:16:40.494Z,100159.88
2019-05-03T16:19:31.008Z,100159.92
2019-05-03T16:22:21.652Z,100160.13
2019-05-03T16:25:14.266Z,100159.16
2019-05-03T16:28:26.782Z,100153.70
2019-05-03T16:31:19.734Z,100143.64
2019-05-03T16:34:10.332Z,100143.39
2019-05-03T16:37:00.663Z,100137.31
2019-05-03T16:39:51.310Z,100143.13
2019-05-03T16:42:41.779Z,100144.66
2019-05-03T16:45:32.500Z,100144.84
2019-05-03T16:48:24.543Z,100134.73
2019-05-03T16:51:17.134Z,100148.02
2019-05-03T16:54:07.023Z,100136.68
2019-05-03T16:56:58.581Z,100137.22
2019-05-03T16:59:49.156Z,100123.36
2019-05-03T17:02:39.392Z,100125.25
2019-05-03T17:05:57.746Z,100125.25
2019-05-03T17:09:07.811Z,100110.53
2019-05-03T17:12:10.379Z,100136.30
2019-05-03T17:15:00.808Z,100131.16
2019-05-03T17:17:51.342Z,100125.43
2019-05-03T17:20:41.900Z,100131.55
2019-05-03T17:23:35.436Z,100122.07
2019-05-03T17:26:25.777Z,100119.38
2019-05-03T17:29:16.385Z,100125.99
2019-05-03T17:32:06.959Z,100131.26
2019-05-03T17:34:57.437Z,100128.20
2019-05-03T17:37:47.959Z,100124.14
2019-05-03T17:40:55.820Z,100131.77
2019-05-03T17:43:59.132Z,100130.91
2019-05-03T17:46:51.412Z,100125.52
2019-05-03T17:49:41.944Z,100130.25
2019-05-03T17:52:57.505Z,100129.23
2019-05-03T17:56:05.338Z,100134.99
2019-05-03T17:58:58.938Z,100132.94
2019-05-03T18:02:23.353Z,100142.43
2019-05-03T18:05:32.218Z,100136.68
2019-05-03T18:08:42.314Z,100150.19
2019-05-03T18:11:38.624Z,100150.19
2019-05-03T18:14:29.261Z,100159.00
2019-05-03T18:17:19.667Z,100152.92
2019-05-03T18:20:09.900Z,100149.67
2019-05-03T18:23:01.274Z,100149.67
2019-05-03T18:25:51.518Z,100169.48
2019-05-03T18:28:41.968Z,100172.67
2019-05-03T18:31:32.483Z,100170.33
2019-05-03T18:34:24.940Z,100172.03
2019-05-03T18:37:15.388Z,100165.23
2019-05-03T18:40:06.948Z,100178.44
2019-05-03T18:43:04.528Z,100181.98
2019-05-03T18:46:12.063Z,100181.98
2019-05-03T18:49:04.882Z,100188.44
2019-05-03T18:51:55.493Z,100187.58
2019-05-03T18:54:45.827Z,100187.73
2019-05-03T18:57:36.382Z,100192.64
2019-05-03T19:00:27.304Z,100192.83
2019-05-03T19:03:17.969Z,100174.56
2019-05-03T19:06:09.757Z,100181.65
2019-05-03T19:09:11.406Z,100181.65
2019-05-03T19:12:12.782Z,100176.23
2019-05-03T19:15:05.192Z,100180.64
2019-05-03T19:17:59.760Z,100180.80
2019-05-03T19:20:49.834Z,100180.64
2019-05-03T19:23:40.342Z,100190.13
2019-05-03T19:26:31.832Z,100194.02
2019-05-03T19:29:22.400Z,100194.02
2019-05-03T19:32:15.055Z,100185.72
2019-05-03T19:35:07.141Z,100185.03
2019-05-03T19:38:00.164Z,100173.52
2019-05-03T19:40:50.980Z,100177.42
2019-05-03T19:43:41.408Z,100181.80
2019-05-03T19:46:31.632Z,100190.38
2019-05-03T19:49:22.410Z,100186.02
2019-05-03T19:52:14.641Z,100181.60
2019-05-03T19:55:05.707Z,100193.92
2019-05-03T19:57:56.198Z,100199.33
2019-05-03T20:01:14.855Z,100185.77
2019-05-03T20:04:27.854Z,100199.50
2019-05-03T20:07:30.223Z,100198.80
2019-05-03T20:10:20.428Z,100196.11
2019-05-03T20:13:10.567Z,100199.65
2019-05-03T20:16:01.195Z,100193.57
2019-05-03T20:18:51.670Z,100184.28
2019-05-03T20:21:42.259Z,100184.28
2019-05-03T20:24:33.527Z,100180.57
2019-05-03T20:27:24.467Z,100173.80
2019-05-03T20:30:15.260Z,100170.76
2019-05-03T20:33:05.736Z,100170.76
2019-05-03T20:35:57.172Z,100162.61
2019-05-03T20:38:47.763Z,100162.61
2019-05-03T20:41:38.328Z,100161.05
2019-05-03T20:44:47.433Z,100157.62
2019-05-03T20:47:51.070Z,100169.24
2019-05-03T20:50:44.607Z,100164.50
2019-05-03T20:53:34.678Z,100162.84
2019-05-03T20:56:25.901Z,100164.64
2019-05-03T20:59:16.255Z,100160.25
2019-05-03T21:02:06.554Z,100150.97
2019-05-03T21:04:57.073Z,100154.69
2019-05-03T21:07:47.634Z,100155.91
2019-05-03T21:10:37.933Z,100159.13
2019-05-03T21:13:39.224Z,100153.05
2019-05-03T21:16:51.768Z,100154.59
2019-05-03T21:20:01.236Z,100153.41
2019-05-03T21:22:51.707Z,100150.33
2019-05-03T21:26:03.611Z,100148.46
2019-05-03T21:28:38.545Z,100147.65
2019-05-03T21:31:28.917Z,100150.25
2019-05-03T21:34:19.390Z,100150.98
2019-05-03T21:37:10.048Z,100153.19
2019-05-03T21:40:00.272Z,100157.05
2019-05-03T21:42:50.452Z,100159.61
2019-05-03T21:45:48.901Z,100152.80
2019-05-03T21:48:57.161Z,100142.45
2019-05-03T21:51:47.380Z,100155.86
2019-05-03T21:54:37.945Z,100147.69
2019-05-03T21:57:28.689Z,100147.03
2019-05-03T22:00:19.661Z,100147.89
2019-05-03T22:03:12.093Z,100149.73
2019-05-03T22:06:02.427Z,100153.81
2019-05-03T22:08:55.376Z,100147.69
2019-05-03T22:11:45.525Z,100149.27
2019-05-03T22:15:05.097Z,100148.98
2019-05-03T22:18:20.231Z,100143.61
2019-05-03T22:21:36.950Z,100138.53
2019-05-03T22:24:36.590Z,100142.81
2019-05-03T22:27:30.351Z,100143.83
2019-05-03T22:30:20.646Z,100140.94
2019-05-03T22:33:11.115Z,100143.11
2019-05-03T22:36:08.653Z,100133.52
2019-05-03T22:38:54.490Z,100133.71
2019-05-03T22:41:45.320Z,100133.71
2019-05-03T22:44:35.768Z,100126.71
2019-05-03T22:47:26.443Z,100121.56
2019-05-03T22:50:16.903Z,100125.52
2019-05-03T22:53:07.037Z,100127.20
2019-05-03T22:55:57.503Z,100130.10
2019-05-03T22:58:47.940Z,100125.47
2019-05-03T23:01:38.120Z,100134.52
2019-05-03T23:04:28.364Z,100125.73
2019-05-03T23:07:18.823Z,100125.03
2019-05-03T23:10:09.318Z,100125.66
2019-05-03T23:12:59.920Z,100123.36
2019-05-03T23:15:50.916Z,100125.07
2019-05-03T23:18:41.527Z,100117.23
2019-05-03T23:21:51.505Z,100120.58
2019-05-03T23:24:42.147Z,100110.73
2019-05-03T23:27:35.342Z,100115.75
2019-05-03T23:30:26.198Z,100110.44
2019-05-03T23:33:17.123Z,100098.92
2019-05-03T23:36:07.674Z,100097.70
2019-05-03T23:38:58.379Z,100097.38
2019-05-03T23:41:48.716Z,100093.95
2019-05-03T23:44:38.866Z,100092.24
2019-05-03T23:47:42.604Z,100087.80
2019-05-03T23:50:35.235Z,100088.41
2019-05-03T23:53:24.970Z,100088.08
2019-05-03T23:56:20.056Z,100087.47
2019-05-03T23:59:10.211Z,100086.77
